createdAt,value
2023-03-02T00:02:47.102Z,16.17
2023-03-02T00:06:09.243Z,16.73
2023-03-02T00:09:33.300Z,16.80
2023-03-02T00:12:57.686Z,16.37
2023-03-02T00:16:19.418Z,17.20
2023-03-02T00:19:42.567Z,17.40
2023-03-02T00:23:04.439Z,17.67
2023-03-02T00:26:26.245Z,17.53
2023-03-02T00:29:48.054Z,17.53
2023-03-02T00:33:09.964Z,17.17
2023-03-02T00:36:31.577Z,17.07
2023-03-02T00:39:54.016Z,16.10
2023-03-02T00:43:19.004Z,16.73
2023-03-02T00:46:40.677Z,17.70
2023-03-02T00:50:03.188Z,17.77
2023-03-02T00:53:24.806Z,17.13
2023-03-02T00:56:46.454Z,17.73
2023-03-02T01:00:11.328Z,16.83
2023-03-02T01:03:33.244Z,16.43
2023-03-02T01:06:54.996Z,17.87
2023-03-02T01:10:16.858Z,17.97
2023-03-02T01:13:38.565Z,18.27
2023-03-02T01:17:00.430Z,17.83
2023-03-02T01:20:22.053Z,18.20
2023-03-02T01:23:43.881Z,17.67
2023-03-02T01:27:05.603Z,17.00
2023-03-02T01:30:27.224Z,17.13
2023-03-02T01:33:48.861Z,18.00
2023-03-02T01:37:10.483Z,17.77
2023-03-02T01:40:34.901Z,18.27
2023-03-02T01:43:58.848Z,17.30
2023-03-02T01:47:23.611Z,17.23
2023-03-02T01:50:45.389Z,16.77
2023-03-02T01:54:17.215Z,18.13
2023-03-02T01:57:44.972Z,18.33
2023-03-02T02:01:15.495Z,17.63
2023-03-02T02:04:40.082Z,18.43
2023-03-02T02:08:02.202Z,18.53
2023-03-02T02:11:24.665Z,19.80
2023-03-02T02:14:48.162Z,19.37
2023-03-02T02:18:09.859Z,19.40
2023-03-02T02:21:36.205Z,18.27
2023-03-02T02:25:03.550Z,18.97
2023-03-02T02:28:25.202Z,18.97
2023-03-02T02:32:12.469Z,17.97
2023-03-02T02:35:38.570Z,18.10
2023-03-02T02:39:04.672Z,18.97
2023-03-02T02:42:39.440Z,18.60
2023-03-02T02:46:06.335Z,17.73
2023-03-02T02:49:33.445Z,17.33
2023-03-02T02:53:02.766Z,16.77
2023-03-02T02:56:43.093Z,16.30
2023-03-02T03:00:06.716Z,16.80
2023-03-02T03:03:36.188Z,16.33
2023-03-02T03:07:01.015Z,16.07
2023-03-02T03:10:35.062Z,15.63
2023-03-02T03:14:14.264Z,15.53
2023-03-02T03:17:40.948Z,15.55
2023-03-02T03:21:02.591Z,16.57
2023-03-02T03:24:25.664Z,16.60
2023-03-02T03:27:47.287Z,15.80
2023-03-02T03:31:08.983Z,16.57
2023-03-02T03:34:34.471Z,15.57
2023-03-02T03:37:56.061Z,15.80
2023-03-02T03:41:20.127Z,14.87
2023-03-02T03:44:42.111Z,13.90
2023-03-02T03:48:04.006Z,13.70
2023-03-02T03:51:26.075Z,14.30
2023-03-02T03:54:52.399Z,14.43
2023-03-02T03:58:16.201Z,13.43
2023-03-02T04:01:44.913Z,40.00
2023-03-02T04:05:12.116Z,19.88
2023-03-02T04:08:33.694Z,14.40
2023-03-02T04:11:59.964Z,14.47
2023-03-02T04:15:24.402Z,14.20
2023-03-02T04:18:46.071Z,15.03
2023-03-02T04:22:12.887Z,13.83
2023-03-02T04:25:34.543Z,14.40
2023-03-02T04:28:56.147Z,15.13
2023-03-02T04:32:23.016Z,15.10
2023-03-02T04:35:44.745Z,14.60
2023-03-02T04:39:06.799Z,14.90
2023-03-02T04:42:30.853Z,14.23
2023-03-02T04:45:54.262Z,14.10
2023-03-02T04:49:17.009Z,13.37
2023-03-02T04:52:41.030Z,13.27
2023-03-02T04:56:02.684Z,13.47
2023-03-02T04:59:27.010Z,15.13
2023-03-02T05:02:54.327Z,19.40
2023-03-02T05:06:16.162Z,14.03
2023-03-02T05:09:40.235Z,12.83
2023-03-02T05:13:05.902Z,12.80
2023-03-02T05:16:29.649Z,12.47
2023-03-02T05:19:51.271Z,12.63
2023-03-02T05:23:25.195Z,13.67
2023-03-02T05:26:47.392Z,13.90
2023-03-02T05:30:11.972Z,13.70
2023-03-02T05:33:34.615Z,13.63
2023-03-02T05:37:00.769Z,13.80
2023-03-02T05:40:22.510Z,13.40
2023-03-02T05:43:44.640Z,14.40
2023-03-02T05:47:09.011Z,62.73
2023-03-02T05:50:31.584Z,15.20
2023-03-02T05:53:55.425Z,14.13
2023-03-02T05:57:19.384Z,15.27
2023-03-02T06:00:41.720Z,14.47
2023-03-02T06:04:06.012Z,13.93
2023-03-02T06:07:32.474Z,14.37
2023-03-02T06:10:59.423Z,15.87
2023-03-02T06:14:21.093Z,14.63
2023-03-02T06:17:42.969Z,14.57
2023-03-02T06:21:05.042Z,14.47
2023-03-02T06:24:28.834Z,14.47
2023-03-02T06:27:51.781Z,14.47
2023-03-02T06:31:15.727Z,13.17
2023-03-02T06:34:37.368Z,13.60
2023-03-02T06:37:59.049Z,14.47
2023-03-02T06:41:24.892Z,12.93
2023-03-02T06:44:46.558Z,12.57
2023-03-02T06:48:08.523Z,13.00
2023-03-02T06:51:30.505Z,12.57
2023-03-02T06:54:52.123Z,12.47
2023-03-02T06:58:13.843Z,12.13
2023-03-02T07:01:36.404Z,11.83
2023-03-02T07:05:00.347Z,11.67
2023-03-02T07:08:22.024Z,11.33
2023-03-02T07:11:48.374Z,11.77
2023-03-02T07:15:12.329Z,10.80
2023-03-02T07:18:33.967Z,10.40
2023-03-02T07:21:55.614Z,10.47
2023-03-02T07:25:19.868Z,10.23
2023-03-02T07:28:43.469Z,10.13
2023-03-02T07:32:06.854Z,9.45
2023-03-02T07:35:28.662Z,10.30
2023-03-02T07:38:50.367Z,10.02
2023-03-02T07:42:15.212Z,10.43
2023-03-02T07:45:39.830Z,42.13
2023-03-02T07:49:02.065Z,9.68
2023-03-02T07:52:23.777Z,9.00
2023-03-02T07:55:45.359Z,8.23
2023-03-02T07:59:06.997Z,8.13
2023-03-02T08:02:28.653Z,7.30
2023-03-02T08:05:54.992Z,8.13
2023-03-02T08:09:17.298Z,7.05
2023-03-02T08:12:38.896Z,7.53
2023-03-02T08:16:01.864Z,7.85
2023-03-02T08:19:23.678Z,8.07
2023-03-02T08:22:50.037Z,7.53
2023-03-02T08:26:14.313Z,7.78
2023-03-02T08:29:37.387Z,8.18
2023-03-02T08:33:00.137Z,8.10
2023-03-02T08:36:23.751Z,7.68
2023-03-02T08:39:48.544Z,7.93
2023-03-02T08:43:10.239Z,8.38
2023-03-02T08:46:31.824Z,7.68
2023-03-02T08:49:58.294Z,7.38
2023-03-02T08:53:24.733Z,7.07
2023-03-02T08:56:46.488Z,7.65
2023-03-02T09:00:12.039Z,6.47
2023-03-02T09:03:33.605Z,4.55
2023-03-02T09:06:55.180Z,3.88
2023-03-02T09:10:16.910Z,4.15
2023-03-02T09:13:41.754Z,4.25
2023-03-02T09:17:06.518Z,4.00
2023-03-02T09:20:28.094Z,3.92
2023-03-02T09:23:53.805Z,3.83
2023-03-02T09:27:15.428Z,4.00
2023-03-02T09:30:39.779Z,3.70
2023-03-02T09:34:03.802Z,4.28
2023-03-02T09:37:27.591Z,5.18
2023-03-02T09:41:09.804Z,10.20
2023-03-02T09:45:05.433Z,6.30
2023-03-02T09:48:54.739Z,4.97
2023-03-02T09:55:56.097Z,4.75
2023-03-02T09:59:17.644Z,4.78
2023-03-02T10:03:02.477Z,4.40
2023-03-02T10:06:27.698Z,4.97
2023-03-02T10:09:51.773Z,5.30
2023-03-02T10:13:16.105Z,5.00
2023-03-02T10:16:46.428Z,4.97
2023-03-02T10:20:20.290Z,4.53
2023-03-02T10:24:19.061Z,5.60
2023-03-02T10:27:43.539Z,5.45
2023-03-02T10:31:10.402Z,5.32
2023-03-02T10:34:33.597Z,5.88
2023-03-02T10:38:12.442Z,5.55
2023-03-02T10:41:43.398Z,5.32
2023-03-02T10:45:23.360Z,5.78
2023-03-02T10:48:49.240Z,5.97
2023-03-02T10:52:24.607Z,6.25
2023-03-02T10:55:52.642Z,5.78
2023-03-02T10:59:27.074Z,6.00
2023-03-02T11:03:00.713Z,6.13
2023-03-02T11:06:27.343Z,5.80
2023-03-02T11:10:17.325Z,6.30
2023-03-02T11:13:43.672Z,5.40
2023-03-02T11:17:31.020Z,5.88
2023-03-02T11:20:56.966Z,5.53
2023-03-02T11:24:33.362Z,5.28
2023-03-02T11:28:03.720Z,11.38
2023-03-02T11:31:37.001Z,5.60
2023-03-02T11:35:02.844Z,4.68
2023-03-02T11:38:30.209Z,5.63
2023-03-02T11:41:56.780Z,5.03
2023-03-02T11:45:24.471Z,4.85
2023-03-02T11:48:50.522Z,4.20
2023-03-02T11:52:24.843Z,4.88
2023-03-02T11:55:50.747Z,4.78
2023-03-02T11:59:23.928Z,5.15
2023-03-02T12:02:45.783Z,4.40
2023-03-02T12:06:26.833Z,4.93
2023-03-02T12:10:06.995Z,4.50
2023-03-02T12:13:39.633Z,4.90
2023-03-02T12:17:22.582Z,4.95
2023-03-02T12:20:46.438Z,4.75
2023-03-02T12:24:25.029Z,5.13
2023-03-02T12:27:49.213Z,4.93
2023-03-02T12:31:13.549Z,5.25
2023-03-02T12:34:41.763Z,5.20
2023-03-02T12:41:44.857Z,7.32
2023-03-02T12:45:31.915Z,5.53
2023-03-02T12:49:14.821Z,5.50
2023-03-02T12:52:37.329Z,5.40
2023-03-02T12:55:59.175Z,5.95
2023-03-02T12:59:27.191Z,5.68
2023-03-02T13:02:54.429Z,6.00
2023-03-02T13:06:20.497Z,5.20
2023-03-02T13:09:47.720Z,5.78
2023-03-02T13:13:27.128Z,5.30
2023-03-02T13:16:57.835Z,5.40
2023-03-02T13:20:22.073Z,6.05
2023-03-02T13:23:51.813Z,4.70
2023-03-02T13:27:17.734Z,5.32
2023-03-02T13:30:47.684Z,5.75
2023-03-02T13:34:23.434Z,4.85
2023-03-02T13:37:45.160Z,4.88
2023-03-02T13:41:10.869Z,4.40
2023-03-02T13:44:35.363Z,4.50
2023-03-02T13:47:59.900Z,4.85
2023-03-02T13:51:24.068Z,4.68
2023-03-02T13:54:47.257Z,4.40
2023-03-02T13:58:16.341Z,4.45
2023-03-02T14:01:41.462Z,4.05
2023-03-02T14:05:06.954Z,4.55
2023-03-02T14:08:30.755Z,4.50
2023-03-02T14:11:55.045Z,4.03
2023-03-02T14:15:17.048Z,4.68
2023-03-02T14:18:40.936Z,4.40
2023-03-02T14:22:02.540Z,4.15
2023-03-02T14:25:26.672Z,4.10
2023-03-02T14:29:04.588Z,3.83
2023-03-02T14:32:27.059Z,7.40
2023-03-02T14:35:50.937Z,3.85
2023-03-02T14:39:20.572Z,4.10
2023-03-02T14:42:42.168Z,3.35
2023-03-02T14:46:06.278Z,4.03
2023-03-02T14:49:28.765Z,3.88
2023-03-02T14:52:57.602Z,4.03
2023-03-02T14:56:22.989Z,4.25
2023-03-02T14:59:44.807Z,4.00
2023-03-02T15:03:06.534Z,4.00
2023-03-02T15:06:31.202Z,3.70
2023-03-02T15:09:52.948Z,3.95
2023-03-02T15:13:19.263Z,3.72
2023-03-02T15:16:42.877Z,3.47
2023-03-02T15:20:08.611Z,3.53
2023-03-02T15:23:32.979Z,3.22
2023-03-02T15:26:54.618Z,3.90
2023-03-02T15:30:16.685Z,2.88
2023-03-02T15:33:41.353Z,3.53
2023-03-02T15:37:05.728Z,3.35
2023-03-02T15:40:27.340Z,3.70
2023-03-02T15:43:56.031Z,3.70
2023-03-02T15:47:17.910Z,3.90
2023-03-02T15:50:39.558Z,4.00
2023-03-02T15:54:10.880Z,3.90
2023-03-02T15:57:37.437Z,4.03
2023-03-02T16:01:01.799Z,4.25
2023-03-02T16:04:23.407Z,3.88
2023-03-02T16:07:45.389Z,4.40
2023-03-02T16:11:11.530Z,4.45
2023-03-02T16:14:36.543Z,4.60
2023-03-02T16:17:58.121Z,5.22
2023-03-02T16:21:20.369Z,6.68
2023-03-02T16:24:42.191Z,5.50
2023-03-02T16:28:04.241Z,4.40
2023-03-02T16:31:28.074Z,4.88
2023-03-02T16:34:49.726Z,5.03
2023-03-02T16:38:13.602Z,4.65
2023-03-02T16:41:38.623Z,5.07
2023-03-02T16:45:00.208Z,6.13
2023-03-02T16:48:22.551Z,6.72
2023-03-02T16:51:46.335Z,8.00
2023-03-02T16:55:15.189Z,7.97
2023-03-02T16:58:39.790Z,5.95
2023-03-02T17:02:01.446Z,6.80
2023-03-02T17:05:23.822Z,7.47
2023-03-02T17:08:45.744Z,8.50
2023-03-02T17:12:08.025Z,8.82
2023-03-02T17:15:32.119Z,22.98
2023-03-02T17:18:56.774Z,9.82
2023-03-02T17:22:18.489Z,10.57
2023-03-02T17:25:42.452Z,10.73
2023-03-02T17:29:04.130Z,11.68
2023-03-02T17:32:28.288Z,11.45
2023-03-02T17:35:50.227Z,10.90
2023-03-02T17:39:11.949Z,11.77
2023-03-02T17:42:33.638Z,11.75
2023-03-02T17:45:57.342Z,12.02
2023-03-02T17:49:19.117Z,11.80
2023-03-02T17:52:41.068Z,12.43
2023-03-02T17:56:07.204Z,12.63
2023-03-02T17:59:29.451Z,12.50
2023-03-02T18:02:52.281Z,12.32
2023-03-02T18:06:18.955Z,14.85
2023-03-02T18:09:40.899Z,13.85
2023-03-02T18:13:02.465Z,13.45
2023-03-02T18:16:27.964Z,14.13
2023-03-02T18:19:49.624Z,14.00
2023-03-02T18:23:12.812Z,13.90
2023-03-02T18:26:36.592Z,15.85
2023-03-02T18:30:00.709Z,15.93
2023-03-02T18:33:24.759Z,14.82
2023-03-02T18:36:49.209Z,16.27
2023-03-02T18:40:12.213Z,15.50
2023-03-02T18:43:37.643Z,16.38
2023-03-02T18:47:00.766Z,15.98
2023-03-02T18:50:23.479Z,17.48
2023-03-02T18:53:48.288Z,17.40
2023-03-02T18:57:13.014Z,18.30
2023-03-02T19:00:35.102Z,17.00
2023-03-02T19:03:57.683Z,17.08
2023-03-02T19:07:21.561Z,16.90
2023-03-02T19:10:43.538Z,27.65
2023-03-02T19:14:05.197Z,16.58
2023-03-02T19:17:26.794Z,16.27
2023-03-02T19:20:54.306Z,15.60
2023-03-02T19:24:15.945Z,15.82
2023-03-02T19:27:37.791Z,16.85
2023-03-02T19:31:09.464Z,16.30
2023-03-02T19:34:33.145Z,16.00
2023-03-02T19:37:55.006Z,15.98
2023-03-02T19:41:19.425Z,15.73
2023-03-02T19:44:41.059Z,15.80
2023-03-02T19:48:03.614Z,16.25
2023-03-02T19:51:25.743Z,17.35
2023-03-02T19:54:47.330Z,18.40
2023-03-02T19:58:16.900Z,16.50
2023-03-02T20:01:39.520Z,17.55
2023-03-02T20:05:01.589Z,17.45
2023-03-02T20:08:25.705Z,18.92
2023-03-02T20:11:48.250Z,17.27
2023-03-02T20:15:10.619Z,20.63
2023-03-02T20:18:32.427Z,19.40
2023-03-02T20:21:54.053Z,17.23
2023-03-02T20:25:19.809Z,18.38
2023-03-02T20:28:41.433Z,17.77
2023-03-02T20:32:09.174Z,19.02
2023-03-02T20:35:37.763Z,18.60
2023-03-02T20:39:07.744Z,19.13
2023-03-02T20:42:31.238Z,18.23
2023-03-02T20:45:53.443Z,17.05
2023-03-02T20:49:16.306Z,16.33
2023-03-02T20:52:41.405Z,17.20
2023-03-02T20:56:03.276Z,17.07
2023-03-02T20:59:25.903Z,18.90
2023-03-02T21:02:50.913Z,18.60
2023-03-02T21:06:15.305Z,17.83
2023-03-02T21:09:37.308Z,17.20
2023-03-02T21:12:59.380Z,18.43
2023-03-02T21:16:35.682Z,16.30
2023-03-02T21:20:00.436Z,18.40
2023-03-02T21:23:22.103Z,17.23
2023-03-02T21:26:49.590Z,17.17
2023-03-02T21:30:23.582Z,18.33
2023-03-02T21:33:45.895Z,19.43
2023-03-02T21:37:07.587Z,19.40
2023-03-02T21:40:33.211Z,23.60
2023-03-02T21:43:57.821Z,20.47
2023-03-02T21:47:19.504Z,22.20
2023-03-02T21:50:46.149Z,22.27
2023-03-02T21:54:12.496Z,19.83
2023-03-02T21:57:34.475Z,19.33
2023-03-02T22:00:56.266Z,19.97
2023-03-02T22:04:17.936Z,20.07
2023-03-02T22:07:39.557Z,19.97
2023-03-02T22:11:01.355Z,19.07
2023-03-02T22:14:23.251Z,23.47
2023-03-02T22:17:45.099Z,20.40
2023-03-02T22:21:30.295Z,18.87
2023-03-02T22:24:53.697Z,19.47
2023-03-02T22:28:21.524Z,19.47
2023-03-02T22:31:47.235Z,19.30
2023-03-02T22:35:27.125Z,19.37
2023-03-02T22:38:49.458Z,21.57
2023-03-02T22:42:17.165Z,20.63
2023-03-02T22:45:40.599Z,21.00
2023-03-02T22:49:02.329Z,20.80
2023-03-02T22:52:27.058Z,23.00
2023-03-02T22:55:51.125Z,24.27
2023-03-02T22:59:27.643Z,24.17
2023-03-02T23:02:56.808Z,22.87
2023-03-02T23:06:28.930Z,26.03
2023-03-02T23:09:50.602Z,23.50
2023-03-02T23:13:15.220Z,24.50
2023-03-02T23:16:41.432Z,22.63
2023-03-02T23:20:07.794Z,24.60
2023-03-02T23:23:29.434Z,22.93
2023-03-02T23:26:53.522Z,22.90
2023-03-02T23:30:18.289Z,24.03
2023-03-02T23:33:42.569Z,22.90
2023-03-02T23:37:04.243Z,23.53
2023-03-02T23:40:31.273Z,25.53
2023-03-02T23:43:52.862Z,24.90
2023-03-02T23:47:14.501Z,24.73
2023-03-02T23:50:38.370Z,23.73
2023-03-02T23:54:00.119Z,23.30
2023-03-02T23:57:21.749Z,26.03
